Terminal Aerodrome Forecast
Issued by NWS

Home | Current Version | Previous Version | Text Only | Print | Product List | Glossary On
Versions: 1 2 3 4 5 6 7 8 9 10 11 12 13 14 15 16 17 18 19 20 21 22 23 24 25 26 27 28 29 30
000
FTUS43 KDVN 272340
TAFBRL
TAF
KBRL 272340Z 2800/2824 29005KT P6SM BKN040
     FM280200 VRB03KT P6SM BKN100
     FM281200 08006KT P6SM VCSH OVC040
     FM281600 11013KT 5SM -RA BR OVC025
     FM282100 06009KT 6SM BR VCSH OVC015=

USA.gov is the U.S. government's official web portal to all federal, state and local government web resources and services.